createdAt,value
2019-02-23T00:04:50.720Z,103351.86
2019-02-23T00:10:57.319Z,103350.38
2019-02-23T00:17:03.086Z,103351.90
2019-02-23T00:23:08.942Z,103344.36
2019-02-23T00:29:14.965Z,103341.84
2019-02-23T00:35:21.329Z,103343.55
2019-02-23T00:41:27.080Z,103338.52
2019-02-23T00:47:33.138Z,103343.80
2019-02-23T00:53:38.969Z,103342.67
2019-02-23T00:59:44.726Z,103357.02
2019-02-23T01:05:50.640Z,103350.23
2019-02-23T01:11:56.552Z,103353.09
2019-02-23T01:18:02.565Z,103355.16
2019-02-23T01:24:08.509Z,103348.45
2019-02-23T01:30:15.068Z,103351.23
2019-02-23T01:36:20.886Z,103349.30
2019-02-23T01:42:27.041Z,103349.13
2019-02-23T01:48:32.935Z,103338.82
2019-02-23T01:54:38.924Z,103342.66
2019-02-23T02:00:44.677Z,103340.13
2019-02-23T02:06:50.602Z,103326.38
2019-02-23T02:12:56.565Z,103318.13
2019-02-23T02:19:02.694Z,103319.52
2019-02-23T02:25:09.310Z,103322.47
2019-02-23T02:31:15.345Z,103314.97
2019-02-23T02:37:21.621Z,103309.06
2019-02-23T02:43:27.516Z,103309.97
2019-02-23T02:49:33.630Z,103308.88
2019-02-23T02:55:39.531Z,103303.02
2019-02-23T03:01:45.695Z,103300.03
2019-02-23T03:07:51.505Z,103303.98
2019-02-23T03:13:57.284Z,103303.64
2019-02-23T03:20:03.256Z,103296.27
2019-02-23T03:26:09.405Z,103296.03
2019-02-23T03:32:15.450Z,103286.39
2019-02-23T03:38:21.332Z,103296.96
2019-02-23T03:44:27.213Z,103290.31
2019-02-23T03:50:32.969Z,103302.89
2019-02-23T03:56:39.258Z,103295.30
2019-02-23T04:02:45.082Z,103302.62
2019-02-23T04:08:50.979Z,103305.06
2019-02-23T04:14:56.872Z,103307.91
2019-02-23T04:21:02.797Z,103323.34
2019-02-23T04:27:09.062Z,103332.41
2019-02-23T04:33:14.805Z,103339.33
2019-02-23T04:39:20.543Z,103348.98
2019-02-23T04:45:26.378Z,103354.25
2019-02-23T04:51:32.244Z,103352.03
2019-02-23T04:57:38.064Z,103361.24
2019-02-23T05:03:46.283Z,103362.59
2019-02-23T05:09:52.050Z,103364.95
2019-02-23T05:15:57.822Z,103376.72
2019-02-23T05:22:03.681Z,103364.39
2019-02-23T05:28:09.867Z,103372.09
2019-02-23T05:34:15.901Z,103369.63
2019-02-23T05:40:21.692Z,103377.62
2019-02-23T05:46:27.884Z,103386.53
2019-02-23T05:52:34.107Z,103383.02
2019-02-23T05:58:40.121Z,103386.53
2019-02-23T06:04:46.692Z,103398.08
2019-02-23T06:10:53.284Z,103410.30
2019-02-23T06:16:59.112Z,103415.59
2019-02-23T06:23:05.613Z,103418.80
2019-02-23T06:29:11.592Z,103410.70
2019-02-23T06:35:18.057Z,103419.14
2019-02-23T06:41:24.412Z,103422.47
2019-02-23T06:47:32.074Z,103421.85
2019-02-23T06:53:38.175Z,103429.58
2019-02-23T06:59:44.369Z,103420.88
2019-02-23T07:05:50.938Z,103417.38
2019-02-23T07:11:56.829Z,103422.67
2019-02-23T07:18:03.179Z,103423.56
2019-02-23T07:24:09.722Z,103431.91
2019-02-23T07:30:15.746Z,103425.80
2019-02-23T07:36:21.646Z,103427.82
2019-02-23T07:42:27.862Z,103416.27
2019-02-23T07:48:34.060Z,103422.98
2019-02-23T07:54:39.927Z,103407.75
2019-02-23T08:00:45.726Z,103404.11
2019-02-23T08:06:51.919Z,103406.59
2019-02-23T08:12:58.451Z,103398.17
2019-02-23T08:19:04.699Z,103399.70
2019-02-23T08:25:11.418Z,103409.31
2019-02-23T08:31:22.011Z,103408.59
2019-02-23T08:37:28.219Z,103415.10
2019-02-23T08:43:34.605Z,103420.50
2019-02-23T08:49:40.466Z,103415.59
2019-02-23T08:55:47.151Z,103417.16
2019-02-23T09:01:53.342Z,103419.53
2019-02-23T09:07:59.355Z,103413.50
2019-02-23T09:14:05.167Z,103403.68
2019-02-23T09:20:12.146Z,103400.48
2019-02-23T09:26:18.381Z,103397.20
2019-02-23T09:32:24.468Z,103403.54
2019-02-23T09:38:30.567Z,103399.30
2019-02-23T09:44:36.753Z,103414.70
2019-02-23T09:50:42.527Z,103414.72
2019-02-23T09:56:48.413Z,103393.66
2019-02-23T10:02:54.372Z,103374.18
2019-02-23T10:09:00.152Z,103368.73
2019-02-23T10:15:06.769Z,103375.27
2019-02-23T10:21:12.637Z,103367.98
2019-02-23T10:27:18.831Z,103360.98
2019-02-23T10:33:24.770Z,103355.63
2019-02-23T10:39:30.915Z,103360.17
2019-02-23T10:45:36.955Z,103351.41
2019-02-23T10:51:42.838Z,103356.23
2019-02-23T10:57:48.834Z,103348.75
2019-02-23T11:03:54.603Z,103343.70
2019-02-23T11:10:00.449Z,103330.38
2019-02-23T11:16:06.368Z,103327.14
2019-02-23T11:22:12.542Z,103312.77
2019-02-23T11:28:18.627Z,103291.42
2019-02-23T11:34:24.853Z,103272.02
2019-02-23T11:40:30.878Z,103269.00
2019-02-23T11:46:36.777Z,103252.53
2019-02-23T11:52:43.751Z,103259.45
2019-02-23T11:58:49.710Z,103249.05
2019-02-23T12:04:55.493Z,103245.22
2019-02-23T12:11:01.282Z,103247.37
2019-02-23T12:17:07.073Z,103241.13
2019-02-23T12:23:12.813Z,103242.81
2019-02-23T12:29:18.705Z,103245.69
2019-02-23T12:35:24.523Z,103249.87
2019-02-23T12:41:30.399Z,103246.69
2019-02-23T12:47:36.534Z,103238.77
2019-02-23T12:53:42.384Z,103233.95
2019-02-23T12:59:48.185Z,103214.67
2019-02-23T13:05:53.983Z,103207.52
2019-02-23T13:12:29.781Z,103204.88
2019-02-23T13:19:30.957Z,103198.48
2019-02-23T13:25:56.085Z,103190.85
2019-02-23T13:32:49.554Z,103194.45
2019-02-23T13:39:29.791Z,103187.70
2019-02-23T13:46:12.535Z,103178.33
2019-02-23T13:53:27.195Z,103181.92
2019-02-23T14:00:16.404Z,103180.08
2019-02-23T14:07:10.323Z,103170.44
2019-02-23T14:14:17.978Z,103177.73
2019-02-23T14:21:18.365Z,103174.80
2019-02-23T14:28:27.658Z,103163.98
2019-02-23T14:35:49.961Z,103157.89
2019-02-23T14:42:32.553Z,103160.31
2019-02-23T14:49:08.266Z,103171.61
2019-02-23T14:56:08.494Z,103167.34
2019-02-23T15:02:58.958Z,103160.33
2019-02-23T15:09:49.379Z,103161.13
2019-02-23T15:17:25.120Z,103150.86
2019-02-23T15:24:05.625Z,103150.27
2019-02-23T15:31:00.422Z,103144.47
2019-02-23T15:38:16.406Z,103149.20
2019-02-23T15:45:20.827Z,103161.81
2019-02-23T15:51:26.720Z,103159.41
2019-02-23T15:57:32.576Z,103157.14
2019-02-23T16:03:38.368Z,103157.52
2019-02-23T16:09:44.369Z,103156.20
2019-02-23T16:15:50.258Z,103155.61
2019-02-23T16:21:56.099Z,103151.98
2019-02-23T16:28:02.163Z,103153.06
2019-02-23T16:34:08.082Z,103151.15
2019-02-23T16:40:14.327Z,103162.01
2019-02-23T16:46:20.078Z,103174.27
2019-02-23T16:52:26.279Z,103178.14
2019-02-23T16:58:32.204Z,103179.26
2019-02-23T17:04:38.352Z,103182.74
2019-02-23T17:10:44.620Z,103185.66
2019-02-23T17:16:50.379Z,103191.16
2019-02-23T17:22:56.202Z,103190.17
2019-02-23T17:29:02.084Z,103191.17
2019-02-23T17:35:08.578Z,103197.08
2019-02-23T17:41:14.479Z,103205.19
2019-02-23T17:47:20.475Z,103204.30
2019-02-23T17:53:26.926Z,103201.72
2019-02-23T17:59:32.770Z,103199.05
2019-02-23T18:05:38.728Z,103202.56
2019-02-23T18:11:44.642Z,103202.73
2019-02-23T18:17:50.740Z,103193.78
2019-02-23T18:23:56.700Z,103191.12
2019-02-23T18:30:10.690Z,103194.38
2019-02-23T18:36:10.183Z,103199.46
2019-02-23T18:42:16.345Z,103200.88
2019-02-23T18:48:22.744Z,103209.20
2019-02-23T18:54:28.650Z,103213.68
2019-02-23T19:00:36.514Z,103219.45
2019-02-23T19:06:42.488Z,103221.16
2019-02-23T19:12:48.381Z,103213.97
2019-02-23T19:18:55.054Z,103215.95
2019-02-23T19:25:01.344Z,103221.05
2019-02-23T19:31:08.163Z,103215.01
2019-02-23T19:37:14.280Z,103216.43
2019-02-23T19:43:20.029Z,103213.27
2019-02-23T19:49:25.920Z,103215.98
2019-02-23T19:55:32.676Z,103219.78
2019-02-23T20:01:39.105Z,103229.53
2019-02-23T20:07:45.178Z,103229.00
2019-02-23T20:13:51.043Z,103233.85
2019-02-23T20:19:56.944Z,103240.30
2019-02-23T20:26:03.968Z,103235.71
2019-02-23T20:32:09.799Z,103234.58
2019-02-23T20:38:15.602Z,103230.17
2019-02-23T20:44:21.415Z,103238.11
2019-02-23T20:50:27.297Z,103226.97
2019-02-23T20:56:33.086Z,103227.06
2019-02-23T21:02:39.114Z,103224.28
2019-02-23T21:08:45.015Z,103220.75
2019-02-23T21:14:51.062Z,103213.13
2019-02-23T21:20:57.071Z,103213.20
2019-02-23T21:27:03.292Z,103212.22
2019-02-23T21:33:09.209Z,103212.13
2019-02-23T21:39:15.043Z,103199.20
2019-02-23T21:45:20.845Z,103196.64
2019-02-23T21:51:26.675Z,103202.48
2019-02-23T21:57:32.510Z,103197.89
2019-02-23T22:03:38.636Z,103192.24
2019-02-23T22:09:44.473Z,103196.02
2019-02-23T22:15:50.542Z,103203.94
2019-02-23T22:21:56.465Z,103192.66
2019-02-23T22:28:02.634Z,103196.73
2019-02-23T22:34:08.853Z,103199.20
2019-02-23T22:40:14.705Z,103198.78
2019-02-23T22:46:20.745Z,103195.27
2019-02-23T22:52:26.693Z,103182.92
2019-02-23T22:58:32.486Z,103181.20
2019-02-23T23:04:38.528Z,103196.26
2019-02-23T23:10:44.781Z,103196.49
2019-02-23T23:16:50.745Z,103192.00
2019-02-23T23:22:56.691Z,103189.30
2019-02-23T23:29:02.865Z,103183.30
2019-02-23T23:35:08.894Z,103187.73
2019-02-23T23:41:14.957Z,103185.13
2019-02-23T23:47:21.000Z,103177.83
2019-02-23T23:53:26.732Z,103181.56
2019-02-23T23:59:32.810Z,103186.33
